createdAt,value
2022-09-05T00:02:35.970Z,101558.50
2022-09-05T00:06:02.210Z,101553.46
2022-09-05T00:09:01.900Z,101545.98
2022-09-05T00:11:56.904Z,101547.16
2022-09-05T00:15:17.086Z,101546.55
2022-09-05T00:24:23.269Z,101547.04
2022-09-05T00:24:30.781Z,101548.98
2022-09-05T00:25:45.406Z,101551.45
2022-09-05T00:28:47.603Z,101551.02
2022-09-05T00:31:57.311Z,101552.98
2022-09-05T00:35:01.001Z,101549.47
2022-09-05T00:37:52.437Z,101542.73
2022-09-05T00:40:45.435Z,101544.60
2022-09-05T00:43:38.309Z,101543.84
2022-09-05T00:46:32.208Z,101547.38
2022-09-05T00:49:26.272Z,101551.49
2022-09-05T00:52:21.555Z,101551.95
2022-09-05T00:55:24.448Z,101555.29
2022-09-05T00:58:36.753Z,101555.45
2022-09-05T01:01:34.939Z,101556.42
2022-09-05T01:04:37.117Z,101555.92
2022-09-05T01:07:46.491Z,101558.28
2022-09-05T01:10:47.871Z,101556.41
2022-09-05T01:13:47.416Z,101558.41
2022-09-05T01:16:59.213Z,101556.27
2022-09-05T01:20:18.885Z,101555.09
2022-09-05T01:23:38.357Z,101553.45
2022-09-05T01:26:44.127Z,101550.92
2022-09-05T01:29:41.580Z,101552.00
2022-09-05T01:32:39.122Z,101555.83
2022-09-05T01:35:52.310Z,101557.86
2022-09-05T01:40:10.759Z,101563.44
2022-09-05T01:42:31.767Z,101562.91
2022-09-05T01:45:39.186Z,101558.63
2022-09-05T01:48:38.913Z,101557.86
2022-09-05T01:51:41.400Z,101563.39
2022-09-05T01:54:41.120Z,101560.72
2022-09-05T01:57:45.744Z,101566.33
2022-09-05T02:00:44.862Z,101563.30
2022-09-05T02:03:43.956Z,101566.07
2022-09-05T02:06:43.205Z,101564.17
2022-09-05T02:09:51.530Z,101564.35
2022-09-05T02:12:58.415Z,101562.08
2022-09-05T02:16:00.637Z,101565.89
2022-09-05T02:19:01.171Z,101571.52
2022-09-05T02:21:59.896Z,101576.80
2022-09-05T02:24:58.497Z,101575.39
2022-09-05T02:28:12.503Z,101573.80
2022-09-05T02:31:20.133Z,101574.27
2022-09-05T02:34:18.673Z,101580.27
2022-09-05T02:37:15.482Z,101579.13
2022-09-05T02:45:06.486Z,101582.92
2022-09-05T02:45:18.803Z,101582.85
2022-09-05T02:46:52.200Z,101579.40
2022-09-05T02:52:08.952Z,101578.14
2022-09-05T02:57:35.598Z,101577.34
2022-09-05T02:57:41.756Z,101577.84
2022-09-05T02:59:53.907Z,101578.49
2022-09-05T03:03:04.647Z,101578.27
2022-09-05T03:06:01.725Z,101575.55
2022-09-05T03:09:16.777Z,101572.73
2022-09-05T03:12:35.418Z,101577.95
2022-09-05T03:15:53.333Z,101585.23
2022-09-05T03:19:21.708Z,101585.53
2022-09-05T03:22:38.664Z,101581.88
2022-09-05T03:26:28.368Z,101583.88
2022-09-05T03:30:00.776Z,101582.79
2022-09-05T03:33:13.473Z,101590.67
2022-09-05T03:36:52.179Z,101591.02
2022-09-05T03:40:00.782Z,101588.20
2022-09-05T03:43:29.926Z,101586.48
2022-09-05T03:46:48.944Z,101587.66
2022-09-05T03:52:44.412Z,101589.69
2022-09-05T03:57:13.049Z,101595.80
2022-09-05T03:57:24.820Z,101593.61
2022-09-05T04:00:22.546Z,101597.20
2022-09-05T04:08:13.499Z,101597.81
2022-09-05T04:08:23.891Z,101595.98
2022-09-05T04:10:00.305Z,101600.62
2022-09-05T04:12:55.985Z,101602.48
2022-09-05T04:15:54.632Z,101605.35
2022-09-05T04:18:50.361Z,101607.52
2022-09-05T04:21:44.853Z,101611.30
2022-09-05T04:24:43.016Z,101613.52
2022-09-05T04:27:41.198Z,101611.64
2022-09-05T04:30:41.946Z,101616.61
2022-09-05T04:33:40.004Z,101614.66
2022-09-05T04:36:33.106Z,101616.38
2022-09-05T04:39:29.415Z,101616.45
2022-09-05T04:42:25.385Z,101618.55
2022-09-05T04:45:24.560Z,101618.70
2022-09-05T04:48:21.375Z,101617.59
2022-09-05T04:51:28.113Z,101618.86
2022-09-05T04:54:30.346Z,101622.41
2022-09-05T04:57:25.952Z,101625.20
2022-09-05T05:06:02.049Z,101625.73
2022-09-05T05:06:09.767Z,101631.58
2022-09-05T05:07:06.099Z,101633.16
2022-09-05T05:11:04.567Z,101633.73
2022-09-05T05:17:56.776Z,101635.85
2022-09-05T05:18:11.491Z,101635.73
2022-09-05T05:20:40.091Z,101642.65
2022-09-05T05:23:08.015Z,101639.31
2022-09-05T05:26:01.587Z,101643.17
2022-09-05T05:29:00.765Z,101640.14
2022-09-05T05:31:53.521Z,101644.88
2022-09-05T05:34:48.496Z,101648.62
2022-09-05T05:37:42.889Z,101649.04
2022-09-05T05:40:39.718Z,101652.21
2022-09-05T05:43:46.448Z,101652.70
2022-09-05T05:46:40.722Z,101655.61
2022-09-05T05:49:46.056Z,101653.73
2022-09-05T05:52:50.460Z,101657.19
2022-09-05T05:55:56.969Z,101657.34
2022-09-05T05:58:59.799Z,101655.32
2022-09-05T06:02:09.140Z,101658.33
2022-09-05T06:05:30.881Z,101665.90
2022-09-05T06:12:29.448Z,101661.67
2022-09-05T06:15:00.311Z,101666.71
2022-09-05T06:16:12.809Z,101668.42
2022-09-05T06:19:30.461Z,101666.59
2022-09-05T06:22:57.792Z,101668.88
2022-09-05T06:26:17.930Z,101663.23
2022-09-05T06:29:16.795Z,101664.42
2022-09-05T06:32:19.379Z,101666.78
2022-09-05T06:35:30.452Z,101668.07
2022-09-05T06:38:51.020Z,101663.63
2022-09-05T06:41:49.247Z,101669.25
2022-09-05T06:44:55.228Z,101667.62
2022-09-05T06:47:56.754Z,101663.57
2022-09-05T06:51:13.369Z,101665.86
2022-09-05T06:54:17.226Z,101668.45
2022-09-05T06:57:30.658Z,101670.33
2022-09-05T07:00:24.829Z,101668.66
2022-09-05T07:04:27.393Z,101669.16
2022-09-05T07:07:46.053Z,101669.94
2022-09-05T07:10:39.865Z,101668.95
2022-09-05T07:13:44.544Z,101668.61
2022-09-05T07:16:47.434Z,101672.58
2022-09-05T07:19:46.617Z,101679.80
2022-09-05T07:22:47.397Z,101683.16
2022-09-05T07:25:42.194Z,101684.89
2022-09-05T07:28:34.100Z,101686.77
2022-09-05T07:31:37.922Z,101691.73
2022-09-05T07:34:32.009Z,101691.11
2022-09-05T07:37:26.128Z,101693.46
2022-09-05T07:40:26.410Z,101699.28
2022-09-05T07:43:22.369Z,101699.36
2022-09-05T07:46:17.020Z,101700.70
2022-09-05T07:49:13.132Z,101701.39
2022-09-05T07:56:50.858Z,101702.00
2022-09-05T07:56:55.975Z,101705.15
2022-09-05T07:58:44.057Z,101703.17
2022-09-05T08:01:38.641Z,101710.74
2022-09-05T08:04:32.150Z,101712.61
2022-09-05T08:07:47.700Z,101711.14
2022-09-05T08:11:24.317Z,101712.23
2022-09-05T08:14:40.591Z,101710.21
2022-09-05T08:17:29.814Z,101704.65
2022-09-05T08:20:32.031Z,101701.38
2022-09-05T08:23:46.521Z,101699.48
2022-09-05T08:26:42.191Z,101694.49
2022-09-05T08:29:38.822Z,101694.18
2022-09-05T08:32:38.878Z,101693.94
2022-09-05T08:35:34.724Z,101693.05
2022-09-05T08:38:25.534Z,101693.46
2022-09-05T08:41:30.354Z,101690.19
2022-09-05T08:46:39.460Z,101688.54
2022-09-05T08:47:59.718Z,101682.27
2022-09-05T08:51:05.074Z,101678.29
2022-09-05T08:54:10.038Z,101673.03
2022-09-05T08:57:11.256Z,101664.27
2022-09-05T09:00:18.934Z,101664.41
2022-09-05T09:03:16.847Z,101660.09
2022-09-05T09:06:37.545Z,101664.80
2022-09-05T09:09:40.482Z,101667.77
2022-09-05T09:13:04.905Z,101663.41
2022-09-05T09:16:04.892Z,101664.75
2022-09-05T09:19:10.307Z,101662.94
2022-09-05T09:22:11.418Z,101663.31
2022-09-05T09:25:15.487Z,101658.61
2022-09-05T09:28:48.874Z,101654.87
2022-09-05T09:31:54.580Z,101653.27
2022-09-05T09:34:49.239Z,101646.48
2022-09-05T09:38:01.970Z,101642.46
2022-09-05T09:41:23.404Z,101644.83
2022-09-05T09:45:27.915Z,101645.80
2022-09-05T09:48:41.750Z,101651.58
2022-09-05T09:51:47.590Z,101644.86
2022-09-05T09:55:23.411Z,101637.16
2022-09-05T09:58:37.744Z,101640.95
2022-09-05T10:01:53.459Z,101634.23
2022-09-05T10:10:33.314Z,101629.92
2022-09-05T10:11:09.015Z,101628.80
2022-09-05T10:11:55.183Z,101628.02
2022-09-05T10:15:10.099Z,101629.08
2022-09-05T10:18:41.168Z,101623.23
2022-09-05T10:25:38.349Z,101616.66
2022-09-05T10:28:38.827Z,101613.47
2022-09-05T10:35:10.443Z,101613.39
2022-09-05T10:35:21.150Z,101608.63
2022-09-05T10:38:17.936Z,101613.13
2022-09-05T10:41:22.182Z,101608.05
2022-09-05T10:44:15.088Z,101606.55
2022-09-05T10:47:18.298Z,101608.55
2022-09-05T10:50:26.424Z,101610.56
2022-09-05T10:53:39.604Z,101609.75
2022-09-05T10:56:30.805Z,101607.27
2022-09-05T11:02:15.719Z,101603.51
2022-09-05T11:02:47.229Z,101604.91
2022-09-05T11:05:45.083Z,101603.03
2022-09-05T11:08:44.061Z,101601.38
2022-09-05T11:11:45.992Z,101594.39
2022-09-05T11:14:46.574Z,101597.19
2022-09-05T11:17:41.879Z,101593.59
2022-09-05T11:21:03.276Z,101594.01
2022-09-05T11:23:57.613Z,101593.27
2022-09-05T11:26:58.249Z,101594.34
2022-09-05T11:30:03.142Z,101593.92
2022-09-05T11:39:38.118Z,101600.45
2022-09-05T11:40:08.460Z,101590.83
2022-09-05T11:40:31.149Z,101601.00
2022-09-05T11:43:47.288Z,101594.17
2022-09-05T11:46:44.428Z,101593.83
2022-09-05T11:49:53.961Z,101587.16
2022-09-05T11:53:16.230Z,101586.58
2022-09-05T11:56:29.190Z,101583.48
2022-09-05T12:02:49.533Z,101577.56
2022-09-05T12:06:26.720Z,101579.87
2022-09-05T12:09:27.910Z,101578.85
2022-09-05T12:12:39.130Z,101579.94
2022-09-05T12:16:07.904Z,101572.47
2022-09-05T12:19:19.612Z,101568.52
2022-09-05T12:22:23.886Z,101570.40
2022-09-05T12:27:38.394Z,101564.91
2022-09-05T12:29:26.533Z,101561.92
2022-09-05T12:33:33.965Z,101565.71
2022-09-05T12:36:04.872Z,101566.60
2022-09-05T12:41:34.651Z,101554.55
2022-09-05T12:42:14.907Z,101555.21
2022-09-05T12:45:28.903Z,101551.89
2022-09-05T12:48:38.853Z,101552.38
2022-09-05T12:51:46.593Z,101555.91
2022-09-05T12:54:47.344Z,101551.58
2022-09-05T13:00:26.285Z,101549.93
2022-09-05T13:03:12.131Z,101543.60
2022-09-05T13:04:18.206Z,101549.76
2022-09-05T13:07:12.951Z,101543.20
2022-09-05T13:14:49.601Z,101538.67
2022-09-05T13:15:07.708Z,101539.89
2022-09-05T13:16:41.719Z,101541.84
2022-09-05T13:19:40.496Z,101540.72
2022-09-05T13:22:31.817Z,101540.68
2022-09-05T13:25:28.644Z,101540.73
2022-09-05T13:28:17.424Z,101532.59
2022-09-05T13:37:53.963Z,101535.51
2022-09-05T13:38:12.339Z,101524.84
2022-09-05T13:38:15.760Z,101524.21
2022-09-05T13:41:00.185Z,101519.48
2022-09-05T13:43:50.124Z,101507.27
2022-09-05T13:46:58.698Z,101505.91
2022-09-05T13:49:58.863Z,101503.45
2022-09-05T13:52:59.378Z,101502.36
2022-09-05T13:55:54.848Z,101500.77
2022-09-05T13:58:57.973Z,101497.08
2022-09-05T14:02:25.012Z,101500.24
2022-09-05T14:05:27.223Z,101498.16
2022-09-05T14:08:40.203Z,101491.70
2022-09-05T14:11:53.209Z,101489.77
2022-09-05T14:18:20.108Z,101480.99
2022-09-05T14:21:17.462Z,101480.88
2022-09-05T14:24:12.723Z,101479.11
2022-09-05T14:27:16.683Z,101480.31
2022-09-05T14:29:57.827Z,101473.01
2022-09-05T14:37:41.130Z,101473.86
2022-09-05T14:37:55.498Z,101475.09
2022-09-05T14:39:22.928Z,101473.95
2022-09-05T14:42:28.791Z,101472.55
2022-09-05T14:45:38.460Z,101471.11
2022-09-05T14:48:39.505Z,101478.81
2022-09-05T14:51:25.337Z,101479.16
2022-09-05T14:54:05.201Z,101471.89
2022-09-05T15:01:44.646Z,101470.56
2022-09-05T15:02:51.033Z,101468.38
2022-09-05T15:02:52.811Z,101463.56
2022-09-05T15:05:40.623Z,101462.02
2022-09-05T15:09:15.119Z,101466.88
2022-09-05T15:12:15.728Z,101462.45
2022-09-05T15:14:09.021Z,101457.73
2022-09-05T15:16:45.617Z,101462.51
2022-09-05T15:20:05.591Z,101457.34
2022-09-05T15:22:41.922Z,101453.63
2022-09-05T15:25:19.494Z,101448.98
2022-09-05T15:27:52.498Z,101450.97
2022-09-05T15:30:35.921Z,101445.79
2022-09-05T15:33:25.796Z,101445.38
2022-09-05T15:35:59.066Z,101448.63
2022-09-05T15:38:54.266Z,101446.80
2022-09-05T15:41:28.926Z,101439.77
2022-09-05T15:44:09.415Z,101438.31
2022-09-05T15:46:51.414Z,101435.91
2022-09-05T15:49:30.869Z,101437.19
2022-09-05T15:52:05.973Z,101435.55
2022-09-05T15:54:49.496Z,101434.71
2022-09-05T15:57:26.583Z,101438.45
2022-09-05T16:00:02.092Z,101440.34
2022-09-05T16:02:38.528Z,101436.39
2022-09-05T16:10:30.913Z,101431.43
2022-09-05T16:10:58.017Z,101432.11
2022-09-05T16:12:25.370Z,101429.90
2022-09-05T16:14:28.028Z,101431.41
2022-09-05T16:23:11.974Z,101430.35
2022-09-05T16:23:25.847Z,101435.27
2022-09-05T16:23:26.992Z,101437.36
2022-09-05T16:26:03.603Z,101435.38
2022-09-05T16:28:39.391Z,101422.46
2022-09-05T16:31:19.174Z,101423.09
2022-09-05T16:33:51.051Z,101423.98
2022-09-05T16:36:31.060Z,101422.91
2022-09-05T16:39:06.716Z,101422.98
2022-09-05T16:41:47.029Z,101421.29
2022-09-05T16:44:30.028Z,101422.20
2022-09-05T16:47:13.988Z,101416.74
2022-09-05T16:49:57.361Z,101414.73
2022-09-05T16:52:46.257Z,101411.50
2022-09-05T16:55:34.870Z,101412.13
2022-09-05T16:58:14.870Z,101409.90
2022-09-05T17:01:00.081Z,101413.95
2022-09-05T17:03:42.877Z,101415.34
2022-09-05T17:06:26.053Z,101417.55
2022-09-05T17:09:13.182Z,101412.44
2022-09-05T17:12:00.184Z,101416.92
2022-09-05T17:14:40.503Z,101417.91
2022-09-05T17:17:19.653Z,101421.45
2022-09-05T17:20:15.177Z,101418.74
2022-09-05T17:24:59.622Z,101415.95
2022-09-05T17:29:25.338Z,101417.98
2022-09-05T17:32:48.788Z,101413.67
2022-09-05T17:35:33.362Z,101412.02
2022-09-05T17:38:25.586Z,101419.10
2022-09-05T17:41:17.500Z,101420.63
2022-09-05T17:43:58.850Z,101416.89
2022-09-05T17:46:34.313Z,101416.42
2022-09-05T17:49:18.099Z,101416.54
2022-09-05T17:52:19.950Z,101417.97
2022-09-05T17:54:54.032Z,101422.55
2022-09-05T17:57:44.307Z,101422.24
2022-09-05T18:01:05.350Z,101428.58
2022-09-05T18:04:16.879Z,101431.48
2022-09-05T18:07:00.484Z,101435.91
2022-09-05T18:10:15.144Z,101439.92
2022-09-05T18:13:12.527Z,101443.20
2022-09-05T18:16:11.626Z,101449.74
2022-09-05T18:21:53.207Z,101450.95
2022-09-05T18:24:40.002Z,101456.48
2022-09-05T18:27:37.791Z,101462.05
2022-09-05T18:30:33.468Z,101463.48
2022-09-05T18:33:55.627Z,101461.38
2022-09-05T18:36:36.503Z,101460.63
2022-09-05T18:39:43.028Z,101455.13
2022-09-05T18:42:33.295Z,101459.80
2022-09-05T18:45:16.347Z,101463.17
2022-09-05T18:47:58.854Z,101469.20
2022-09-05T18:50:37.598Z,101469.64
2022-09-05T18:53:20.546Z,101465.58
2022-09-05T18:56:09.737Z,101466.77
2022-09-05T18:58:55.543Z,101466.42
2022-09-05T19:01:50.247Z,101466.20
2022-09-05T19:04:40.315Z,101468.21
2022-09-05T19:07:22.442Z,101466.65
2022-09-05T19:10:36.167Z,101465.38
2022-09-05T19:13:13.489Z,101465.20
2022-09-05T19:16:02.336Z,101468.46
2022-09-05T19:19:16.114Z,101468.27
2022-09-05T19:22:03.468Z,101463.45
2022-09-05T19:24:46.152Z,101460.23
2022-09-05T19:27:47.270Z,101455.45
2022-09-05T19:36:53.117Z,101460.67
2022-09-05T19:37:08.359Z,101460.04
2022-09-05T19:37:10.870Z,101458.42
2022-09-05T19:39:49.411Z,101464.85
2022-09-05T19:47:35.917Z,101458.08
2022-09-05T19:47:55.606Z,101457.46
2022-09-05T19:48:07.725Z,101457.29
2022-09-05T19:50:40.358Z,101455.14
2022-09-05T19:53:18.367Z,101455.50
2022-09-05T19:55:51.716Z,101453.23
2022-09-05T19:58:25.718Z,101456.84
2022-09-05T20:01:08.040Z,101456.73
2022-09-05T20:03:45.637Z,101454.66
2022-09-05T20:06:30.170Z,101452.24
2022-09-05T20:09:17.538Z,101452.25
2022-09-05T20:11:52.215Z,101452.85
2022-09-05T20:14:26.917Z,101460.92
2022-09-05T20:17:18.435Z,101464.85
2022-09-05T20:20:03.819Z,101462.48
2022-09-05T20:22:49.074Z,101458.31
2022-09-05T20:25:35.576Z,101451.71
2022-09-05T20:28:11.855Z,101448.98
2022-09-05T20:30:46.981Z,101450.30
2022-09-05T20:33:24.023Z,101449.73
2022-09-05T20:43:08.080Z,101451.57
2022-09-05T20:43:16.801Z,101448.85
2022-09-05T20:43:19.531Z,101448.36
2022-09-05T20:44:50.568Z,101449.05
2022-09-05T20:51:36.534Z,101448.62
2022-09-05T20:54:19.415Z,101447.77
2022-09-05T20:54:25.490Z,101449.00
2022-09-05T20:56:23.566Z,101449.10
2022-09-05T20:58:58.597Z,101444.46
2022-09-05T21:01:32.677Z,101443.05
2022-09-05T21:04:06.868Z,101446.72
2022-09-05T21:06:41.367Z,101450.52
2022-09-05T21:09:24.241Z,101450.30
2022-09-05T21:11:58.785Z,101453.02
2022-09-05T21:14:31.618Z,101452.09
2022-09-05T21:17:06.946Z,101448.95
2022-09-05T21:19:54.758Z,101451.42
2022-09-05T21:22:39.349Z,101450.46
2022-09-05T21:25:43.974Z,101453.94
2022-09-05T21:28:36.442Z,101453.41
2022-09-05T21:31:15.151Z,101456.34
2022-09-05T21:33:48.259Z,101461.56
2022-09-05T21:36:29.719Z,101458.56
2022-09-05T21:39:03.574Z,101459.46
2022-09-05T21:41:35.425Z,101466.63
2022-09-05T21:44:10.661Z,101462.69
2022-09-05T21:47:41.845Z,101464.90
2022-09-05T21:49:54.424Z,101461.14
2022-09-05T21:52:27.838Z,101464.67
2022-09-05T21:59:20.808Z,101461.39
2022-09-05T21:59:27.320Z,101462.46
2022-09-05T22:00:51.533Z,101467.89
2022-09-05T22:03:24.453Z,101471.88
2022-09-05T22:05:56.761Z,101476.75
2022-09-05T22:08:32.313Z,101476.88
2022-09-05T22:11:04.068Z,101476.33
2022-09-05T22:13:35.872Z,101474.77
2022-09-05T22:16:09.758Z,101479.38
2022-09-05T22:18:44.398Z,101477.20
2022-09-05T22:21:33.374Z,101476.13
2022-09-05T22:24:10.485Z,101472.55
2022-09-05T22:27:06.220Z,101468.46
2022-09-05T22:29:36.482Z,101472.77
2022-09-05T22:32:08.831Z,101474.77
2022-09-05T22:34:40.520Z,101470.00
2022-09-05T22:37:16.902Z,101466.10
2022-09-05T22:39:49.053Z,101466.05
2022-09-05T22:42:20.815Z,101464.07
2022-09-05T22:44:52.563Z,101465.06
2022-09-05T22:47:26.480Z,101452.87
2022-09-05T22:49:58.335Z,101450.31
2022-09-05T22:52:30.116Z,101457.71
2022-09-05T22:55:02.119Z,101455.86
2022-09-05T22:57:34.016Z,101450.34
2022-09-05T23:00:07.537Z,101454.02
2022-09-05T23:02:39.488Z,101453.06
2022-09-05T23:05:12.435Z,101450.52
2022-09-05T23:07:44.263Z,101450.25
2022-09-05T23:10:16.368Z,101448.10
2022-09-05T23:12:48.296Z,101452.76
2022-09-05T23:15:20.972Z,101457.48
2022-09-05T23:17:55.647Z,101453.30
2022-09-05T23:20:29.453Z,101452.13
2022-09-05T23:23:05.551Z,101456.75
2022-09-05T23:25:37.956Z,101459.26
2022-09-05T23:28:10.816Z,101454.83
2022-09-05T23:30:42.808Z,101452.42
2022-09-05T23:33:14.608Z,101451.09
2022-09-05T23:35:46.498Z,101454.23
2022-09-05T23:38:18.449Z,101451.06
2022-09-05T23:40:50.192Z,101453.61
2022-09-05T23:43:22.193Z,101460.52
2022-09-05T23:45:54.192Z,101460.61
2022-09-05T23:48:26.239Z,101459.80
2022-09-05T23:50:58.565Z,101457.06
2022-09-05T23:53:30.420Z,101453.85
2022-09-05T23:56:03.626Z,101452.61
2022-09-05T23:58:36.480Z,101445.20
